Garland's Hourly Summary for Sunday, March 19, 2017
Hour Temp
(f)
RH
(%)
Solar Rad.
(MJ/m2)
Rainfall
(in)
Wind
(mph)
3/19/2017 12:00 AM 67 70 0 0 2.11
3/19/2017 1:00 AM 65 77 0 0 3.26
3/19/2017 2:00 AM 64 81 0 0 3
3/19/2017 3:00 AM 63 85 0 0 2.28
3/19/2017 4:00 AM 62 89 0 0 3
3/19/2017 5:00 AM 62 88 0 0 2.86
3/19/2017 6:00 AM 63 85 0 0 3.08
3/19/2017 7:00 AM 62 88 0 0 2.62
3/19/2017 8:00 AM 62 92 0.05 0 4.05
3/19/2017 9:00 AM 63 86 0.54 0 5.26
3/19/2017 10:00 AM 66 75 1.22 0 5.37
3/19/2017 11:00 AM 69 72 1.31 0 5.93
3/19/2017 12:00 PM 71 61 2.35 0 7.54
3/19/2017 1:00 PM 73 60 2.7 0 8.87
3/19/2017 2:00 PM 75 54 2.84 0 9.73
3/19/2017 3:00 PM 77 48 2.54 0 10.04
3/19/2017 4:00 PM 79 45 2.23 0 9.9
3/19/2017 5:00 PM 80 45 1.76 0 9.74
3/19/2017 6:00 PM 79 46 0.81 0 10.09
3/19/2017 7:00 PM 78 48 0.39 0 10.05
3/19/2017 8:00 PM 76 51 0.04 0 9.28
3/19/2017 9:00 PM 74 56 0 0 7.62
3/19/2017 10:00 PM 73 57 0 0 8.35
3/19/2017 11:00 PM 72 56 0 0 8.27
Data Summary 69 67 18.78 0.00 6.35